sensor_id;sensor_type;location;lat;lon;timestamp;temperature;humidity
40932;DHT22;36257;46.052;12.540;2023-03-03T00:00:45;4.60;98.00
40932;DHT22;36257;46.052;12.540;2023-03-03T00:03:15;4.60;98.10
40932;DHT22;36257;46.052;12.540;2023-03-03T00:05:41;4.70;98.10
40932;DHT22;36257;46.052;12.540;2023-03-03T00:08:07;4.70;97.90
40932;DHT22;36257;46.052;12.540;2023-03-03T00:10:33;4.70;97.60
40932;DHT22;36257;46.052;12.540;2023-03-03T00:12:59;4.70;97.70
40932;DHT22;36257;46.052;12.540;2023-03-03T00:15:25;4.80;97.70
40932;DHT22;36257;46.052;12.540;2023-03-03T00:17:51;4.70;97.70
40932;DHT22;36257;46.052;12.540;2023-03-03T00:23:19;4.80;97.40
40932;DHT22;36257;46.052;12.540;2023-03-03T00:25:50;4.70;97.30
40932;DHT22;36257;46.052;12.540;2023-03-03T00:30:52;4.70;97.40
40932;DHT22;36257;46.052;12.540;2023-03-03T00:33:29;4.70;97.50
40932;DHT22;36257;46.052;12.540;2023-03-03T00:36:09;4.70;97.50
40932;DHT22;36257;46.052;12.540;2023-03-03T00:38:47;4.70;97.40
40932;DHT22;36257;46.052;12.540;2023-03-03T00:41:26;4.70;97.50
40932;DHT22;36257;46.052;12.540;2023-03-03T00:43:53;4.70;97.30
40932;DHT22;36257;46.052;12.540;2023-03-03T00:46:20;4.70;97.10
40932;DHT22;36257;46.052;12.540;2023-03-03T00:48:47;4.70;97.10
40932;DHT22;36257;46.052;12.540;2023-03-03T00:51:26;4.70;97.10
40932;DHT22;36257;46.052;12.540;2023-03-03T00:53:52;4.60;97.40
40932;DHT22;36257;46.052;12.540;2023-03-03T00:56:18;4.40;97.90
40932;DHT22;36257;46.052;12.540;2023-03-03T00:58:44;4.40;98.30
40932;DHT22;36257;46.052;12.540;2023-03-03T01:01:12;4.30;98.60
40932;DHT22;36257;46.052;12.540;2023-03-03T01:03:38;4.30;98.90
40932;DHT22;36257;46.052;12.540;2023-03-03T01:06:04;4.20;99.40
40932;DHT22;36257;46.052;12.540;2023-03-03T01:08:30;4.20;99.30
40932;DHT22;36257;46.052;12.540;2023-03-03T01:11:03;4.10;99.30
40932;DHT22;36257;46.052;12.540;2023-03-03T01:13:32;4.10;99.30
40932;DHT22;36257;46.052;12.540;2023-03-03T01:15:59;4.00;99.30
40932;DHT22;36257;46.052;12.540;2023-03-03T01:18:26;4.00;99.70
40932;DHT22;36257;46.052;12.540;2023-03-03T01:20:51;3.90;99.90
40932;DHT22;36257;46.052;12.540;2023-03-03T01:23:17;4.00;99.90
40932;DHT22;36257;46.052;12.540;2023-03-03T01:25:43;4.00;99.90
40932;DHT22;36257;46.052;12.540;2023-03-03T01:28:09;3.90;99.90
40932;DHT22;36257;46.052;12.540;2023-03-03T01:30:35;3.90;99.90
40932;DHT22;36257;46.052;12.540;2023-03-03T01:33:01;3.90;99.90
40932;DHT22;36257;46.052;12.540;2023-03-03T01:35:27;3.90;99.90
40932;DHT22;36257;46.052;12.540;2023-03-03T01:37:54;3.90;99.90
40932;DHT22;36257;46.052;12.540;2023-03-03T01:40:23;3.90;99.90
40932;DHT22;36257;46.052;12.540;2023-03-03T01:42:49;3.90;99.90
40932;DHT22;36257;46.052;12.540;2023-03-03T01:50:30;3.80;99.90
40932;DHT22;36257;46.052;12.540;2023-03-03T01:52:58;3.90;99.90
40932;DHT22;36257;46.052;12.540;2023-03-03T01:55:29;3.90;99.90
40932;DHT22;36257;46.052;12.540;2023-03-03T01:58:13;4.00;99.90
40932;DHT22;36257;46.052;12.540;2023-03-03T02:00:41;4.00;99.80
40932;DHT22;36257;46.052;12.540;2023-03-03T02:03:10;3.90;99.80
40932;DHT22;36257;46.052;12.540;2023-03-03T02:05:36;3.90;99.70
40932;DHT22;36257;46.052;12.540;2023-03-03T02:08:02;3.90;99.70
40932;DHT22;36257;46.052;12.540;2023-03-03T02:10:29;4.00;99.50
40932;DHT22;36257;46.052;12.540;2023-03-03T02:12:57;4.00;99.40
40932;DHT22;36257;46.052;12.540;2023-03-03T02:15:24;4.00;99.40
40932;DHT22;36257;46.052;12.540;2023-03-03T02:18:06;4.00;99.40
40932;DHT22;36257;46.052;12.540;2023-03-03T02:20:56;4.10;99.10
40932;DHT22;36257;46.052;12.540;2023-03-03T02:28:23;4.20;98.90
40932;DHT22;36257;46.052;12.540;2023-03-03T02:30:53;4.20;98.80
40932;DHT22;36257;46.052;12.540;2023-03-03T02:33:19;4.20;98.70
40932;DHT22;36257;46.052;12.540;2023-03-03T02:35:44;4.20;98.90
40932;DHT22;36257;46.052;12.540;2023-03-03T02:38:16;4.10;98.70
40932;DHT22;36257;46.052;12.540;2023-03-03T02:40:57;4.10;98.80
40932;DHT22;36257;46.052;12.540;2023-03-03T02:43:26;4.10;98.90
40932;DHT22;36257;46.052;12.540;2023-03-03T02:45:53;4.20;98.90
40932;DHT22;36257;46.052;12.540;2023-03-03T02:48:19;4.20;98.60
40932;DHT22;36257;46.052;12.540;2023-03-03T02:50:44;4.30;98.40
40932;DHT22;36257;46.052;12.540;2023-03-03T02:53:10;4.30;98.20
40932;DHT22;36257;46.052;12.540;2023-03-03T02:55:36;4.30;98.20
40932;DHT22;36257;46.052;12.540;2023-03-03T02:58:01;4.30;98.10
40932;DHT22;36257;46.052;12.540;2023-03-03T03:00:27;4.30;98.20
40932;DHT22;36257;46.052;12.540;2023-03-03T03:02:53;4.30;98.10
40932;DHT22;36257;46.052;12.540;2023-03-03T03:05:18;4.30;98.20
40932;DHT22;36257;46.052;12.540;2023-03-03T03:07:44;4.30;98.20
40932;DHT22;36257;46.052;12.540;2023-03-03T03:10:09;4.30;98.10
40932;DHT22;36257;46.052;12.540;2023-03-03T03:12:35;4.40;97.90
40932;DHT22;36257;46.052;12.540;2023-03-03T03:15:01;4.50;97.40
40932;DHT22;36257;46.052;12.540;2023-03-03T03:17:27;4.60;97.00
40932;DHT22;36257;46.052;12.540;2023-03-03T03:19:52;4.70;96.60
40932;DHT22;36257;46.052;12.540;2023-03-03T03:22:18;4.80;96.40
40932;DHT22;36257;46.052;12.540;2023-03-03T03:24:44;4.80;96.40
40932;DHT22;36257;46.052;12.540;2023-03-03T03:27:09;4.80;96.60
40932;DHT22;36257;46.052;12.540;2023-03-03T03:29:35;4.80;96.60
40932;DHT22;36257;46.052;12.540;2023-03-03T03:32:00;4.80;96.50
40932;DHT22;36257;46.052;12.540;2023-03-03T03:34:26;4.80;96.30
40932;DHT22;36257;46.052;12.540;2023-03-03T03:36:52;4.80;96.50
40932;DHT22;36257;46.052;12.540;2023-03-03T03:39:17;4.70;96.50
40932;DHT22;36257;46.052;12.540;2023-03-03T03:41:43;4.60;96.90
40932;DHT22;36257;46.052;12.540;2023-03-03T03:44:08;4.60;97.20
40932;DHT22;36257;46.052;12.540;2023-03-03T03:46:34;4.60;97.20
40932;DHT22;36257;46.052;12.540;2023-03-03T03:49:00;4.70;97.00
40932;DHT22;36257;46.052;12.540;2023-03-03T03:51:25;4.70;97.00
40932;DHT22;36257;46.052;12.540;2023-03-03T03:53:51;4.60;97.10
40932;DHT22;36257;46.052;12.540;2023-03-03T03:56:16;4.60;97.10
40932;DHT22;36257;46.052;12.540;2023-03-03T03:58:42;4.60;97.30
40932;DHT22;36257;46.052;12.540;2023-03-03T04:01:08;4.60;97.50
40932;DHT22;36257;46.052;12.540;2023-03-03T04:03:34;4.50;97.70
40932;DHT22;36257;46.052;12.540;2023-03-03T04:06:00;4.60;97.70
40932;DHT22;36257;46.052;12.540;2023-03-03T04:08:25;4.60;97.30
40932;DHT22;36257;46.052;12.540;2023-03-03T04:10:51;4.60;97.30
40932;DHT22;36257;46.052;12.540;2023-03-03T04:13:16;4.60;97.10
40932;DHT22;36257;46.052;12.540;2023-03-03T04:15:42;4.60;97.20
40932;DHT22;36257;46.052;12.540;2023-03-03T04:18:08;4.60;97.00
40932;DHT22;36257;46.052;12.540;2023-03-03T04:20:33;4.60;97.00
40932;DHT22;36257;46.052;12.540;2023-03-03T04:22:59;4.70;97.00
40932;DHT22;36257;46.052;12.540;2023-03-03T04:25:24;4.70;96.80
40932;DHT22;36257;46.052;12.540;2023-03-03T04:27:50;4.70;96.80
40932;DHT22;36257;46.052;12.540;2023-03-03T04:30:19;4.80;96.70
40932;DHT22;36257;46.052;12.540;2023-03-03T04:32:45;4.80;96.50
40932;DHT22;36257;46.052;12.540;2023-03-03T04:35:10;4.90;96.40
40932;DHT22;36257;46.052;12.540;2023-03-03T04:37:37;4.90;96.30
40932;DHT22;36257;46.052;12.540;2023-03-03T04:40:05;5.00;96.00
40932;DHT22;36257;46.052;12.540;2023-03-03T04:42:31;5.00;95.80
40932;DHT22;36257;46.052;12.540;2023-03-03T04:44:56;5.00;95.90
40932;DHT22;36257;46.052;12.540;2023-03-03T04:47:22;5.00;95.80
40932;DHT22;36257;46.052;12.540;2023-03-03T04:49:48;5.00;95.90
40932;DHT22;36257;46.052;12.540;2023-03-03T04:52:13;5.00;95.90
40932;DHT22;36257;46.052;12.540;2023-03-03T04:54:39;4.90;96.00
40932;DHT22;36257;46.052;12.540;2023-03-03T04:57:04;4.90;96.10
40932;DHT22;36257;46.052;12.540;2023-03-03T04:59:30;4.90;96.10
40932;DHT22;36257;46.052;12.540;2023-03-03T05:01:56;4.90;96.40
40932;DHT22;36257;46.052;12.540;2023-03-03T05:04:22;4.80;96.40
40932;DHT22;36257;46.052;12.540;2023-03-03T05:06:47;4.80;96.40
40932;DHT22;36257;46.052;12.540;2023-03-03T05:09:13;4.80;96.50
40932;DHT22;36257;46.052;12.540;2023-03-03T05:11:38;4.80;96.30
40932;DHT22;36257;46.052;12.540;2023-03-03T05:14:04;4.80;96.40
40932;DHT22;36257;46.052;12.540;2023-03-03T05:16:32;4.80;96.60
40932;DHT22;36257;46.052;12.540;2023-03-03T05:18:58;4.80;96.40
40932;DHT22;36257;46.052;12.540;2023-03-03T05:21:23;4.80;96.40
40932;DHT22;36257;46.052;12.540;2023-03-03T05:23:49;4.80;96.40
40932;DHT22;36257;46.052;12.540;2023-03-03T05:26:14;4.80;96.60
40932;DHT22;36257;46.052;12.540;2023-03-03T05:28:41;4.80;96.80
40932;DHT22;36257;46.052;12.540;2023-03-03T05:31:07;4.70;97.10
40932;DHT22;36257;46.052;12.540;2023-03-03T05:33:32;4.60;97.10
40932;DHT22;36257;46.052;12.540;2023-03-03T05:35:58;4.70;97.10
40932;DHT22;36257;46.052;12.540;2023-03-03T05:38:24;4.70;96.90
40932;DHT22;36257;46.052;12.540;2023-03-03T05:40:50;4.70;96.80
40932;DHT22;36257;46.052;12.540;2023-03-03T05:43:15;4.70;96.90
40932;DHT22;36257;46.052;12.540;2023-03-03T05:45:41;4.60;97.10
40932;DHT22;36257;46.052;12.540;2023-03-03T05:48:07;4.60;97.20
40932;DHT22;36257;46.052;12.540;2023-03-03T05:50:35;4.60;97.30
40932;DHT22;36257;46.052;12.540;2023-03-03T05:53:02;4.60;97.30
40932;DHT22;36257;46.052;12.540;2023-03-03T05:55:27;4.60;97.40
40932;DHT22;36257;46.052;12.540;2023-03-03T05:57:53;4.60;97.50
40932;DHT22;36257;46.052;12.540;2023-03-03T06:00:19;4.60;97.40
40932;DHT22;36257;46.052;12.540;2023-03-03T06:02:45;4.60;97.30
40932;DHT22;36257;46.052;12.540;2023-03-03T06:05:11;4.60;97.60
40932;DHT22;36257;46.052;12.540;2023-03-03T06:07:37;4.60;97.70
40932;DHT22;36257;46.052;12.540;2023-03-03T06:10:03;4.70;97.50
40932;DHT22;36257;46.052;12.540;2023-03-03T06:12:30;4.70;97.50
40932;DHT22;36257;46.052;12.540;2023-03-03T06:14:58;4.70;97.50
40932;DHT22;36257;46.052;12.540;2023-03-03T06:17:24;4.70;97.60
40932;DHT22;36257;46.052;12.540;2023-03-03T06:19:50;4.70;97.60
40932;DHT22;36257;46.052;12.540;2023-03-03T06:22:16;4.60;98.20
40932;DHT22;36257;46.052;12.540;2023-03-03T06:24:42;4.70;98.20
40932;DHT22;36257;46.052;12.540;2023-03-03T06:27:09;4.90;98.10
40932;DHT22;36257;46.052;12.540;2023-03-03T06:29:35;5.00;97.70
40932;DHT22;36257;46.052;12.540;2023-03-03T06:32:01;5.10;98.00
40932;DHT22;36257;46.052;12.540;2023-03-03T06:34:29;5.20;98.00
40932;DHT22;36257;46.052;12.540;2023-03-03T06:36:55;5.30;97.80
40932;DHT22;36257;46.052;12.540;2023-03-03T06:39:21;5.30;98.30
40932;DHT22;36257;46.052;12.540;2023-03-03T06:41:50;5.30;98.00
40932;DHT22;36257;46.052;12.540;2023-03-03T06:44:16;5.40;98.30
40932;DHT22;36257;46.052;12.540;2023-03-03T06:46:42;5.40;97.80
40932;DHT22;36257;46.052;12.540;2023-03-03T06:49:07;5.50;97.90
40932;DHT22;36257;46.052;12.540;2023-03-03T06:51:35;5.60;97.60
40932;DHT22;36257;46.052;12.540;2023-03-03T06:54:15;5.60;97.20
40932;DHT22;36257;46.052;12.540;2023-03-03T07:12:17;6.40;95.10
40932;DHT22;36257;46.052;12.540;2023-03-03T07:14:46;6.60;94.50
40932;DHT22;36257;46.052;12.540;2023-03-03T07:17:19;6.70;94.10
40932;DHT22;36257;46.052;12.540;2023-03-03T07:19:46;6.90;94.60
40932;DHT22;36257;46.052;12.540;2023-03-03T07:22:23;7.00;94.50
40932;DHT22;36257;46.052;12.540;2023-03-03T07:24:58;7.20;92.90
40932;DHT22;36257;46.052;12.540;2023-03-03T07:27:29;7.30;93.30
40932;DHT22;36257;46.052;12.540;2023-03-03T07:30:16;7.40;92.60
40932;DHT22;36257;46.052;12.540;2023-03-03T07:32:42;7.40;92.50
40932;DHT22;36257;46.052;12.540;2023-03-03T07:38:48;7.70;93.00
40932;DHT22;36257;46.052;12.540;2023-03-03T07:41:16;7.90;90.00
40932;DHT22;36257;46.052;12.540;2023-03-03T07:43:59;8.10;87.70
40932;DHT22;36257;46.052;12.540;2023-03-03T07:48:59;8.40;86.00
40932;DHT22;36257;46.052;12.540;2023-03-03T07:51:36;8.50;85.80
40932;DHT22;36257;46.052;12.540;2023-03-03T07:56:50;8.80;86.90
40932;DHT22;36257;46.052;12.540;2023-03-03T07:59:24;8.90;86.30
40932;DHT22;36257;46.052;12.540;2023-03-03T08:01:52;9.00;86.30
40932;DHT22;36257;46.052;12.540;2023-03-03T08:04:23;9.10;85.60
40932;DHT22;36257;46.052;12.540;2023-03-03T08:06:51;9.30;83.90
40932;DHT22;36257;46.052;12.540;2023-03-03T08:11:54;9.50;83.30
40932;DHT22;36257;46.052;12.540;2023-03-03T08:14:28;9.60;84.00
40932;DHT22;36257;46.052;12.540;2023-03-03T08:16:55;9.60;83.80
40932;DHT22;36257;46.052;12.540;2023-03-03T08:19:21;9.60;84.30
40932;DHT22;36257;46.052;12.540;2023-03-03T08:21:47;9.70;83.80
40932;DHT22;36257;46.052;12.540;2023-03-03T08:24:13;9.70;83.00
40932;DHT22;36257;46.052;12.540;2023-03-03T08:26:38;9.70;83.60
40932;DHT22;36257;46.052;12.540;2023-03-03T08:29:04;9.80;82.70
40932;DHT22;36257;46.052;12.540;2023-03-03T08:31:29;9.90;83.10
40932;DHT22;36257;46.052;12.540;2023-03-03T08:33:55;9.80;82.70
40932;DHT22;36257;46.052;12.540;2023-03-03T08:36:21;9.80;83.60
40932;DHT22;36257;46.052;12.540;2023-03-03T08:38:46;9.90;83.80
40932;DHT22;36257;46.052;12.540;2023-03-03T08:41:12;10.00;84.00
40932;DHT22;36257;46.052;12.540;2023-03-03T08:43:38;10.10;83.50
40932;DHT22;36257;46.052;12.540;2023-03-03T08:46:05;10.10;83.00
40932;DHT22;36257;46.052;12.540;2023-03-03T08:48:32;10.20;81.80
40932;DHT22;36257;46.052;12.540;2023-03-03T08:50:58;10.10;82.20
40932;DHT22;36257;46.052;12.540;2023-03-03T08:53:24;10.10;81.90
40932;DHT22;36257;46.052;12.540;2023-03-03T08:55:50;10.20;82.40
40932;DHT22;36257;46.052;12.540;2023-03-03T08:58:17;10.50;81.60
40932;DHT22;36257;46.052;12.540;2023-03-03T09:00:44;10.50;80.40
40932;DHT22;36257;46.052;12.540;2023-03-03T09:03:09;10.60;80.40
40932;DHT22;36257;46.052;12.540;2023-03-03T09:05:37;10.60;79.90
40932;DHT22;36257;46.052;12.540;2023-03-03T09:08:03;10.70;81.60
40932;DHT22;36257;46.052;12.540;2023-03-03T09:10:30;10.80;80.90
40932;DHT22;36257;46.052;12.540;2023-03-03T09:13:03;11.00;80.10
40932;DHT22;36257;46.052;12.540;2023-03-03T09:15:33;11.40;80.10
40932;DHT22;36257;46.052;12.540;2023-03-03T09:18:13;11.50;78.70
40932;DHT22;36257;46.052;12.540;2023-03-03T09:23:30;12.20;78.10
40932;DHT22;36257;46.052;12.540;2023-03-03T09:28:36;12.60;77.90
40932;DHT22;36257;46.052;12.540;2023-03-03T09:31:02;12.80;76.20
40932;DHT22;36257;46.052;12.540;2023-03-03T09:33:44;13.10;75.50
40932;DHT22;36257;46.052;12.540;2023-03-03T09:38:46;13.30;73.70
40932;DHT22;36257;46.052;12.540;2023-03-03T09:44:39;13.40;74.00
40932;DHT22;36257;46.052;12.540;2023-03-03T09:52:48;13.80;72.70
40932;DHT22;36257;46.052;12.540;2023-03-03T09:55:29;13.70;73.40
40932;DHT22;36257;46.052;12.540;2023-03-03T10:05:59;12.90;73.60
40932;DHT22;36257;46.052;12.540;2023-03-03T10:17:07;13.80;71.80
40932;DHT22;36257;46.052;12.540;2023-03-03T10:19:40;14.10;70.90
40932;DHT22;36257;46.052;12.540;2023-03-03T10:25:01;14.60;71.00
40932;DHT22;36257;46.052;12.540;2023-03-03T10:27:56;15.00;71.40
40932;DHT22;36257;46.052;12.540;2023-03-03T10:39:05;16.10;65.30
40932;DHT22;36257;46.052;12.540;2023-03-03T10:47:33;16.50;67.40
40932;DHT22;36257;46.052;12.540;2023-03-03T10:52:48;16.70;66.90
40932;DHT22;36257;46.052;12.540;2023-03-03T10:55:30;16.40;66.10
40932;DHT22;36257;46.052;12.540;2023-03-03T11:06:04;17.50;66.10
40932;DHT22;36257;46.052;12.540;2023-03-03T11:13:58;18.00;59.20
40932;DHT22;36257;46.052;12.540;2023-03-03T11:17:00;17.90;61.70
40932;DHT22;36257;46.052;12.540;2023-03-03T11:19:35;17.60;61.40
40932;DHT22;36257;46.052;12.540;2023-03-03T11:22:20;17.30;61.90
40932;DHT22;36257;46.052;12.540;2023-03-03T11:25:02;17.70;62.80
40932;DHT22;36257;46.052;12.540;2023-03-03T11:35:44;17.30;62.50
40932;DHT22;36257;46.052;12.540;2023-03-03T11:38:23;17.50;62.10
40932;DHT22;36257;46.052;12.540;2023-03-03T11:43:44;17.20;63.40
40932;DHT22;36257;46.052;12.540;2023-03-03T11:46:18;17.10;60.80
40932;DHT22;36257;46.052;12.540;2023-03-03T11:49:04;17.30;63.10
40932;DHT22;36257;46.052;12.540;2023-03-03T11:51:58;17.20;63.80
40932;DHT22;36257;46.052;12.540;2023-03-03T11:57:20;16.30;64.20
40932;DHT22;36257;46.052;12.540;2023-03-03T11:59:57;15.60;67.00
40932;DHT22;36257;46.052;12.540;2023-03-03T12:05:32;16.10;68.80
40932;DHT22;36257;46.052;12.540;2023-03-03T12:13:41;17.50;65.10
40932;DHT22;36257;46.052;12.540;2023-03-03T12:16:31;17.70;62.30
40932;DHT22;36257;46.052;12.540;2023-03-03T12:22:34;18.00;63.30
40932;DHT22;36257;46.052;12.540;2023-03-03T12:27:49;18.30;61.90
40932;DHT22;36257;46.052;12.540;2023-03-03T12:40:35;17.90;62.40
40932;DHT22;36257;46.052;12.540;2023-03-03T12:46:05;18.30;61.60
40932;DHT22;36257;46.052;12.540;2023-03-03T12:48:41;18.50;61.70
40932;DHT22;36257;46.052;12.540;2023-03-03T12:54:48;19.10;63.00
40932;DHT22;36257;46.052;12.540;2023-03-03T12:56:44;19.40;59.80
40932;DHT22;36257;46.052;12.540;2023-03-03T13:05:26;19.80;59.30
40932;DHT22;36257;46.052;12.540;2023-03-03T13:13:08;20.20;59.20
40932;DHT22;36257;46.052;12.540;2023-03-03T13:26:39;18.30;61.80
40932;DHT22;36257;46.052;12.540;2023-03-03T13:31:55;17.50;64.60
40932;DHT22;36257;46.052;12.540;2023-03-03T13:34:50;17.20;65.00
40932;DHT22;36257;46.052;12.540;2023-03-03T13:40:30;16.80;66.40
40932;DHT22;36257;46.052;12.540;2023-03-03T13:43:03;16.70;64.40
40932;DHT22;36257;46.052;12.540;2023-03-03T13:50:51;15.70;68.60
40932;DHT22;36257;46.052;12.540;2023-03-03T14:01:16;15.60;69.30
40932;DHT22;36257;46.052;12.540;2023-03-03T14:04:00;15.70;68.00
40932;DHT22;36257;46.052;12.540;2023-03-03T14:06:29;15.60;68.40
40932;DHT22;36257;46.052;12.540;2023-03-03T14:09:09;15.60;69.00
40932;DHT22;36257;46.052;12.540;2023-03-03T14:11:59;15.50;68.40
40932;DHT22;36257;46.052;12.540;2023-03-03T14:15:28;15.40;69.80
40932;DHT22;36257;46.052;12.540;2023-03-03T14:17:34;15.40;69.60
40932;DHT22;36257;46.052;12.540;2023-03-03T14:25:15;15.70;69.60
40932;DHT22;36257;46.052;12.540;2023-03-03T14:35:41;15.90;68.50
40932;DHT22;36257;46.052;12.540;2023-03-03T14:40:36;15.90;70.10
40932;DHT22;36257;46.052;12.540;2023-03-03T14:43:24;16.00;69.30
40932;DHT22;36257;46.052;12.540;2023-03-03T14:45:51;16.10;69.30
40932;DHT22;36257;46.052;12.540;2023-03-03T14:48:22;16.00;68.20
40932;DHT22;36257;46.052;12.540;2023-03-03T14:51:24;15.90;68.60
40932;DHT22;36257;46.052;12.540;2023-03-03T14:53:50;15.80;70.10
40932;DHT22;36257;46.052;12.540;2023-03-03T14:56:29;15.80;69.40
40932;DHT22;36257;46.052;12.540;2023-03-03T14:59:16;15.70;68.40
40932;DHT22;36257;46.052;12.540;2023-03-03T15:01:43;15.60;70.20
40932;DHT22;36257;46.052;12.540;2023-03-03T15:06:46;15.40;69.90
40932;DHT22;36257;46.052;12.540;2023-03-03T15:12:01;15.30;69.50
40932;DHT22;36257;46.052;12.540;2023-03-03T15:14:32;15.30;70.60
40932;DHT22;36257;46.052;12.540;2023-03-03T15:17:23;15.30;70.40
40932;DHT22;36257;46.052;12.540;2023-03-03T15:20:07;15.20;70.40
40932;DHT22;36257;46.052;12.540;2023-03-03T15:25:32;15.00;70.80
40932;DHT22;36257;46.052;12.540;2023-03-03T15:31:12;14.80;71.60
40932;DHT22;36257;46.052;12.540;2023-03-03T15:36:47;14.80;71.40
40932;DHT22;36257;46.052;12.540;2023-03-03T15:44:56;14.60;74.10
40932;DHT22;36257;46.052;12.540;2023-03-03T15:52:55;14.20;74.00
40932;DHT22;36257;46.052;12.540;2023-03-03T15:55:31;14.20;73.60
40932;DHT22;36257;46.052;12.540;2023-03-03T15:58:11;14.00;73.80
40932;DHT22;36257;46.052;12.540;2023-03-03T16:03:30;13.80;74.90
40932;DHT22;36257;46.052;12.540;2023-03-03T16:06:05;13.70;73.60
40932;DHT22;36257;46.052;12.540;2023-03-03T16:09:00;13.50;75.20
40932;DHT22;36257;46.052;12.540;2023-03-03T16:11:44;13.60;74.20
40932;DHT22;36257;46.052;12.540;2023-03-03T16:20:39;13.70;75.10
40932;DHT22;36257;46.052;12.540;2023-03-03T16:23:21;13.60;75.00
40932;DHT22;36257;46.052;12.540;2023-03-03T16:26:14;13.60;76.10
40932;DHT22;36257;46.052;12.540;2023-03-03T16:28:59;13.50;75.90
40932;DHT22;36257;46.052;12.540;2023-03-03T16:31:36;13.50;76.30
40932;DHT22;36257;46.052;12.540;2023-03-03T16:39:50;13.30;76.80
40932;DHT22;36257;46.052;12.540;2023-03-03T16:42:43;13.30;76.90
40932;DHT22;36257;46.052;12.540;2023-03-03T16:45:21;13.20;77.70
40932;DHT22;36257;46.052;12.540;2023-03-03T17:13:15;11.70;81.70
40932;DHT22;36257;46.052;12.540;2023-03-03T17:21:54;11.30;83.20
40932;DHT22;36257;46.052;12.540;2023-03-03T17:33:22;11.10;83.60
40932;DHT22;36257;46.052;12.540;2023-03-03T17:41:12;10.80;83.80
40932;DHT22;36257;46.052;12.540;2023-03-03T17:46:28;10.70;84.90
40932;DHT22;36257;46.052;12.540;2023-03-03T18:00:28;10.00;86.20
40932;DHT22;36257;46.052;12.540;2023-03-03T18:22:30;9.60;86.70
40932;DHT22;36257;46.052;12.540;2023-03-03T18:25:11;9.60;87.00
40932;DHT22;36257;46.052;12.540;2023-03-03T18:27:38;9.40;87.40
40932;DHT22;36257;46.052;12.540;2023-03-03T18:37:46;8.90;89.00
40932;DHT22;36257;46.052;12.540;2023-03-03T18:42:45;8.80;89.60
40932;DHT22;36257;46.052;12.540;2023-03-03T18:48:14;8.70;89.60
40932;DHT22;36257;46.052;12.540;2023-03-03T18:50:47;8.70;89.50
40932;DHT22;36257;46.052;12.540;2023-03-03T18:53:29;8.50;89.90
40932;DHT22;36257;46.052;12.540;2023-03-03T18:55:57;8.50;90.00
40932;DHT22;36257;46.052;12.540;2023-03-03T18:58:38;8.40;90.10
40932;DHT22;36257;46.052;12.540;2023-03-03T19:06:30;8.30;90.80
40932;DHT22;36257;46.052;12.540;2023-03-03T19:09:43;8.30;90.70
40932;DHT22;36257;46.052;12.540;2023-03-03T19:12:10;8.20;90.90
40932;DHT22;36257;46.052;12.540;2023-03-03T19:14:46;8.10;90.80
40932;DHT22;36257;46.052;12.540;2023-03-03T19:20:10;8.00;91.40
40932;DHT22;36257;46.052;12.540;2023-03-03T19:22:47;7.90;91.60
40932;DHT22;36257;46.052;12.540;2023-03-03T19:25:23;7.90;92.10
40932;DHT22;36257;46.052;12.540;2023-03-03T19:31:02;7.90;91.90
40932;DHT22;36257;46.052;12.540;2023-03-03T19:36:29;7.80;92.00
40932;DHT22;36257;46.052;12.540;2023-03-03T19:45:29;7.60;93.30
40932;DHT22;36257;46.052;12.540;2023-03-03T19:48:19;7.50;93.40
40932;DHT22;36257;46.052;12.540;2023-03-03T19:53:44;7.50;92.80
40932;DHT22;36257;46.052;12.540;2023-03-03T20:01:49;7.30;93.20
40932;DHT22;36257;46.052;12.540;2023-03-03T20:07:22;7.30;93.60
40932;DHT22;36257;46.052;12.540;2023-03-03T20:13:08;7.30;93.50
40932;DHT22;36257;46.052;12.540;2023-03-03T20:21:29;7.10;93.90
40932;DHT22;36257;46.052;12.540;2023-03-03T20:27:27;7.10;94.00
40932;DHT22;36257;46.052;12.540;2023-03-03T20:29:57;7.00;94.30
40932;DHT22;36257;46.052;12.540;2023-03-03T20:32:46;7.00;94.10
40932;DHT22;36257;46.052;12.540;2023-03-03T20:38:24;7.00;94.20
40932;DHT22;36257;46.052;12.540;2023-03-03T20:44:18;7.10;94.00
40932;DHT22;36257;46.052;12.540;2023-03-03T20:50:16;6.90;94.10
40932;DHT22;36257;46.052;12.540;2023-03-03T20:53:18;6.90;94.00
40932;DHT22;36257;46.052;12.540;2023-03-03T21:01:21;6.60;94.80
40932;DHT22;36257;46.052;12.540;2023-03-03T21:03:49;6.50;95.00
40932;DHT22;36257;46.052;12.540;2023-03-03T21:06:16;6.50;95.00
40932;DHT22;36257;46.052;12.540;2023-03-03T21:08:52;6.50;95.00
40932;DHT22;36257;46.052;12.540;2023-03-03T21:13:48;6.50;94.90
40932;DHT22;36257;46.052;12.540;2023-03-03T21:19:25;6.50;94.50
40932;DHT22;36257;46.052;12.540;2023-03-03T21:21:51;6.40;95.00
40932;DHT22;36257;46.052;12.540;2023-03-03T21:24:17;6.40;95.50
40932;DHT22;36257;46.052;12.540;2023-03-03T21:26:53;6.40;95.30
40932;DHT22;36257;46.052;12.540;2023-03-03T21:29:31;6.50;94.90
40932;DHT22;36257;46.052;12.540;2023-03-03T21:31:58;6.50;95.00
40932;DHT22;36257;46.052;12.540;2023-03-03T21:34:32;6.50;95.20
40932;DHT22;36257;46.052;12.540;2023-03-03T21:37:00;6.40;95.30
40932;DHT22;36257;46.052;12.540;2023-03-03T21:46:57;6.30;95.10
40932;DHT22;36257;46.052;12.540;2023-03-03T21:49:23;6.30;95.20
40932;DHT22;36257;46.052;12.540;2023-03-03T21:51:49;6.20;95.10
40932;DHT22;36257;46.052;12.540;2023-03-03T21:54:14;6.20;95.10
40932;DHT22;36257;46.052;12.540;2023-03-03T21:56:40;6.10;95.20
40932;DHT22;36257;46.052;12.540;2023-03-03T21:59:06;6.10;95.30
40932;DHT22;36257;46.052;12.540;2023-03-03T22:01:32;6.10;95.50
40932;DHT22;36257;46.052;12.540;2023-03-03T22:03:58;6.10;95.70
40932;DHT22;36257;46.052;12.540;2023-03-03T22:06:24;6.10;95.60
40932;DHT22;36257;46.052;12.540;2023-03-03T22:08:50;6.00;95.60
40932;DHT22;36257;46.052;12.540;2023-03-03T22:11:15;6.00;95.70
40932;DHT22;36257;46.052;12.540;2023-03-03T22:13:41;5.90;95.90
40932;DHT22;36257;46.052;12.540;2023-03-03T22:16:07;5.90;95.80
40932;DHT22;36257;46.052;12.540;2023-03-03T22:18:33;5.90;96.10
40932;DHT22;36257;46.052;12.540;2023-03-03T22:20:58;5.80;96.00
40932;DHT22;36257;46.052;12.540;2023-03-03T22:23:24;5.70;96.10
40932;DHT22;36257;46.052;12.540;2023-03-03T22:25:50;5.70;96.60
40932;DHT22;36257;46.052;12.540;2023-03-03T22:28:15;5.60;96.70
40932;DHT22;36257;46.052;12.540;2023-03-03T22:30:41;5.60;96.70
40932;DHT22;36257;46.052;12.540;2023-03-03T22:33:07;5.70;96.80
40932;DHT22;36257;46.052;12.540;2023-03-03T22:35:32;5.70;96.50
40932;DHT22;36257;46.052;12.540;2023-03-03T22:37:58;5.70;96.70
40932;DHT22;36257;46.052;12.540;2023-03-03T22:40:24;5.70;96.70
40932;DHT22;36257;46.052;12.540;2023-03-03T22:42:50;5.60;96.80
40932;DHT22;36257;46.052;12.540;2023-03-03T22:45:15;5.60;96.70